Time;durP1;ratioP1;P1;durP2;ratioP2;P2;SDS_P1;SDS_P2;PMS_P1;PMS_P2;Temp;Humidity;BMP_temperature;BMP_pressure;BME280_temperature;BME280_humidity;BME280_pressure;Samples;Min_cycle;Max_cycle;Signal;HPM_P1;HPM_P2
2021/11/22 00:01:27;;;;;;;0.60;0.60;;;19.90;47.50;;;23.54;31.96;101569.19;5094553;28;20044;-47
2021/11/22 00:03:53;;;;;;;0.75;0.63;;;19.90;47.50;;;23.57;32.23;101583.22;5094681;28;20469;-45
2021/11/22 00:06:19;;;;;;;0.68;0.60;;;19.90;47.50;;;23.57;32.22;101580.53;5094523;28;20044;-45
2021/11/22 00:08:45;;;;;;;1.25;0.63;;;19.90;47.50;;;23.55;31.92;101579.75;5094411;28;20518;-48
2021/11/22 00:11:11;;;;;;;0.95;0.70;;;19.90;47.50;;;23.58;32.07;101592.06;5094542;28;20381;-44
2021/11/22 00:13:37;;;;;;;0.60;0.60;;;19.90;47.50;;;23.56;32.17;101586.81;5094514;28;20044;-48
2021/11/22 00:16:03;;;;;;;0.60;0.60;;;19.90;47.50;;;23.54;32.05;101579.84;5094356;28;20051;-46
2021/11/22 00:18:30;;;;;;;0.60;0.60;;;19.90;47.50;;;23.55;32.10;101590.44;5093728;28;20134;-43
2021/11/22 00:20:57;;;;;;;0.50;0.50;;;19.90;47.50;;;23.54;32.16;101599.41;5094137;28;20051;-44
2021/11/22 00:23:23;;;;;;;0.30;0.30;;;19.90;47.40;;;23.54;32.13;101602.09;5094608;28;20134;-47
2021/11/22 00:25:49;;;;;;;0.60;0.60;;;19.90;47.50;;;23.58;31.97;101610.75;5094264;28;20055;-43
2021/11/22 00:28:15;;;;;;;0.57;0.57;;;19.90;47.40;;;23.55;32.17;101611.78;5094464;28;20048;-46
2021/11/22 00:31:00;;;;;;;0.65;0.60;;;19.90;47.50;;;23.55;32.12;101609.13;5073775;28;20388;-45
2021/11/22 00:33:36;;;;;;;0.60;0.50;;;19.80;47.40;;;23.58;32.09;101619.63;5076603;28;20420;-47
2021/11/22 00:36:13;;;;;;;0.60;0.52;;;19.80;47.40;;;23.58;31.91;101622.28;5075944;28;20441;-45
2021/11/22 00:38:39;;;;;;;0.65;0.60;;;19.90;47.50;;;23.56;32.18;101626.88;5093694;28;20052;-48
2021/11/22 00:41:07;;;;;;;0.60;0.50;;;19.90;47.50;;;23.56;32.13;101618.84;5094301;28;20178;-46
2021/11/22 00:43:34;;;;;;;0.50;0.50;;;19.90;47.50;;;23.54;32.00;101625.22;5093875;28;20131;-44
2021/11/22 00:46:01;;;;;;;0.50;0.50;;;19.80;47.50;;;23.54;32.09;101625.22;5094258;28;20052;-45
2021/11/22 00:48:28;;;;;;;0.50;0.40;;;19.90;47.50;;;23.53;32.05;101632.38;5093914;28;20044;-45
2021/11/22 00:50:55;;;;;;;0.60;0.50;;;19.80;47.40;;;23.54;32.27;101641.25;5093943;28;20050;-43
2021/11/22 00:53:22;;;;;;;0.60;0.50;;;19.90;47.50;;;23.56;32.15;101642.88;5093323;28;20079;-45
2021/11/22 00:55:48;;;;;;;0.50;0.50;;;19.90;47.50;;;23.56;32.07;101650.03;5093606;28;20080;-46
2021/11/22 00:58:14;;;;;;;0.50;0.50;;;19.90;47.50;;;23.55;32.05;101656.31;5093709;28;20518;-45
2021/11/22 01:00:41;;;;;;;0.50;0.50;;;19.90;47.50;;;23.58;31.91;101658.81;5093416;28;20090;-45
2021/11/22 01:03:07;;;;;;;0.60;0.60;;;19.90;47.50;;;23.54;32.05;101652.81;5093518;28;20151;-42
2021/11/22 01:05:33;;;;;;;0.52;0.50;;;19.90;47.50;;;23.55;32.22;101657.16;5093577;28;20495;-42
2021/11/22 01:08:00;;;;;;;0.68;0.50;;;19.90;47.40;;;23.56;32.14;101674.91;5093492;28;20438;-43
2021/11/22 01:10:26;;;;;;;0.40;0.40;;;19.90;47.50;;;23.54;32.05;101671.50;5093392;28;20083;-42
2021/11/22 01:12:52;;;;;;;0.52;0.52;;;19.90;47.40;;;23.58;31.92;101685.50;5093566;28;20506;-44
2021/11/22 01:15:23;;;;;;;0.52;0.52;;;19.90;47.50;;;23.57;31.96;101695.34;5093421;28;20123;-43
2021/11/22 01:17:52;;;;;;;0.73;0.73;;;19.90;47.40;;;23.54;31.89;101686.63;5093532;28;20043;-43
2021/11/22 01:20:21;;;;;;;0.57;0.50;;;19.90;47.40;;;23.60;32.26;101696.94;5093245;28;20055;-43
2021/11/22 01:22:47;;;;;;;0.52;0.45;;;19.90;47.40;;;23.55;32.14;101701.69;5093987;28;20048;-44
2021/11/22 01:25:15;;;;;;;0.50;0.50;;;19.90;47.40;;;23.55;32.04;101701.69;5093403;28;20510;-46
2021/11/22 01:27:40;;;;;;;1.08;0.73;;;19.90;47.40;;;23.60;31.98;101716.47;5093622;28;20071;-45
2021/11/22 01:30:11;;;;;;;0.73;0.70;;;19.90;47.30;;;23.58;31.98;101721.06;5092664;28;20076;-43
2021/11/22 01:32:39;;;;;;;0.85;0.60;;;19.90;47.30;;;23.62;32.07;101725.28;5093352;28;20085;-43
2021/11/22 01:35:06;;;;;;;1.08;0.50;;;19.90;47.30;;;23.59;32.01;101728.13;5075292;28;20052;-45
2021/11/22 01:37:31;;;;;;;0.50;0.50;;;19.90;47.30;;;23.58;32.02;101733.56;5093162;28;20123;-44
2021/11/22 01:39:57;;;;;;;0.50;0.50;;;19.90;47.30;;;23.58;32.21;101730.88;5092986;28;20050;-42
2021/11/22 01:42:23;;;;;;;0.77;0.77;;;19.90;47.30;;;23.62;32.13;101740.41;5093354;28;20052;-48
2021/11/22 01:44:49;;;;;;;0.60;0.52;;;19.90;47.30;;;23.60;32.22;101743.19;5093346;28;20048;-45
2021/11/22 01:47:15;;;;;;;1.00;0.52;;;19.90;47.30;;;23.59;31.91;101743.28;5092799;28;20040;-45
2021/11/22 01:49:41;;;;;;;0.50;0.50;;;19.90;47.30;;;23.58;32.01;101739.75;5093294;28;20503;-43
2021/11/22 01:52:07;;;;;;;0.63;0.63;;;19.90;47.30;;;23.62;32.11;101751.09;5093293;28;20131;-43
2021/11/22 01:54:33;;;;;;;0.63;0.52;;;19.90;47.30;;;23.62;32.09;101760.00;5092907;28;20454;-45
2021/11/22 01:56:59;;;;;;;0.50;0.50;;;19.90;47.30;;;23.60;32.09;101748.53;5093205;28;20054;-42
2021/11/22 01:59:25;;;;;;;0.82;0.70;;;19.90;47.30;;;23.61;32.15;101766.28;5092605;28;20052;-43
2021/11/22 02:01:51;;;;;;;0.77;0.73;;;19.90;47.20;;;23.61;32.16;101762.75;5093136;28;20121;-46
2021/11/22 02:04:17;;;;;;;0.60;0.60;;;19.90;47.30;;;23.63;31.95;101772.38;5092759;28;20127;-46
2021/11/22 02:06:44;;;;;;;0.60;0.60;;;19.90;47.30;;;23.63;31.91;101779.53;5092797;28;20055;-45
2021/11/22 02:09:09;;;;;;;0.80;0.68;;;19.90;47.20;;;23.63;32.04;101782.19;5092485;28;20119;-42
2021/11/22 02:11:36;;;;;;;0.60;0.60;;;19.90;47.20;;;23.61;31.74;101778.78;5093207;28;20139;-43
2021/11/22 02:14:03;;;;;;;0.55;0.50;;;20.00;47.20;;;23.61;32.01;101781.44;5092674;28;20051;-47
2021/11/22 02:16:29;;;;;;;0.60;0.60;;;19.90;47.20;;;23.64;32.13;101791.94;5092705;28;20048;-43
2021/11/22 02:18:56;;;;;;;0.50;0.50;;;20.00;47.30;;;23.63;32.04;101783.06;5092336;28;20079;-44
2021/11/22 02:21:22;;;;;;;0.50;0.50;;;19.90;47.20;;;23.64;32.03;101786.59;5092376;28;20047;-43
2021/11/22 02:23:48;;;;;;;0.60;0.60;;;20.00;47.20;;;23.64;31.92;101787.44;5092585;28;20407;-46
2021/11/22 02:26:14;;;;;;;0.45;0.45;;;20.00;47.20;;;23.61;31.84;101781.44;5092828;28;20040;-46
2021/11/22 02:28:41;;;;;;;0.50;0.50;;;20.00;47.20;;;23.63;31.87;101787.53;5092658;28;20500;-47
2021/11/22 02:31:07;;;;;;;0.50;0.50;;;20.00;47.20;;;23.64;31.76;101790.13;5092467;28;20102;-44
2021/11/22 02:33:34;;;;;;;0.57;0.50;;;20.00;47.60;;;23.66;31.80;101790.88;5092719;28;20045;-45
2021/11/22 02:36:02;;;;;;;0.68;0.60;;;20.00;47.10;;;23.66;31.94;101793.56;5092399;28;20098;-51
2021/11/22 02:38:39;;;;;;;0.50;0.50;;;20.00;47.00;;;23.67;31.85;101807.75;5092267;28;20059;-47
2021/11/22 02:41:08;;;;;;;0.60;0.60;;;20.00;47.00;;;23.66;31.91;101806.91;5093057;28;20395;-47
2021/11/22 02:43:38;;;;;;;0.50;0.50;;;20.00;47.00;;;23.64;31.77;101810.63;5095899;28;20040;-48
2021/11/22 02:46:05;;;;;;;0.45;0.45;;;20.00;47.00;;;23.66;31.80;101816.75;5096239;28;20472;-44
2021/11/22 02:48:31;;;;;;;0.43;0.43;;;20.00;47.00;;;23.67;31.96;101830.00;5095866;28;20048;-45
2021/11/22 02:50:57;;;;;;;0.60;0.60;;;20.00;47.00;;;23.66;31.86;101830.94;5096323;28;20117;-44
2021/11/22 02:53:27;;;;;;;0.68;0.60;;;20.00;47.10;;;23.66;32.03;101830.09;5095893;28;20040;-44
2021/11/22 02:55:59;;;;;;;0.50;0.50;;;20.00;47.10;;;23.66;31.75;101833.59;5096294;28;20074;-47
2021/11/22 02:58:26;;;;;;;0.60;0.60;;;20.00;47.10;;;23.67;31.96;101832.66;5095774;28;20105;-47
2021/11/22 03:00:54;;;;;;;0.60;0.50;;;20.00;47.10;;;23.66;31.87;101830.09;5095537;28;20135;-44
2021/11/22 03:03:29;;;;;;;0.43;0.43;;;20.00;47.10;;;23.66;31.86;101840.75;5095624;28;20503;-44
2021/11/22 03:06:23;;;;;;;1.38;0.68;;;20.00;47.10;;;23.65;32.04;101839.88;5095480;28;20077;-47
2021/11/22 03:08:50;;;;;;;0.45;0.40;;;20.00;47.10;;;23.70;31.87;101844.97;5091936;28;20106;-47
2021/11/22 03:11:17;;;;;;;0.40;0.40;;;20.00;47.00;;;23.71;31.94;101851.19;5095755;28;20390;-42
2021/11/22 03:13:45;;;;;;;0.47;0.47;;;20.00;46.90;;;23.71;31.72;101851.19;5095773;28;20044;-48
2021/11/22 03:16:13;;;;;;;0.40;0.40;;;20.10;46.90;;;23.70;31.78;101850.31;5095329;28;20503;-47
2021/11/22 03:18:39;;;;;;;0.80;0.43;;;20.10;46.80;;;23.74;31.63;101854.53;5095192;28;20518;-42
2021/11/22 03:21:06;;;;;;;1.25;0.60;;;20.10;46.80;;;23.74;31.80;101853.66;5095364;28;20051;-42
2021/11/22 03:23:36;;;;;;;0.43;0.43;;;20.10;46.70;;;23.76;31.92;101854.44;5095354;28;20098;-45
2021/11/22 03:26:03;;;;;;;0.50;0.50;;;20.10;46.70;;;23.76;31.72;101855.28;5095809;28;20040;-44
2021/11/22 03:28:31;;;;;;;0.50;0.50;;;20.20;46.70;;;23.75;31.70;101864.25;5095091;28;20114;-44
2021/11/22 03:30:59;;;;;;;0.60;0.45;;;20.20;46.70;;;23.76;31.83;101863.31;5095154;28;20052;-46
2021/11/22 03:33:26;;;;;;;0.60;0.47;;;20.20;46.60;;;23.77;31.88;101866.84;5095473;28;20052;-45
2021/11/22 03:35:54;;;;;;;0.50;0.50;;;20.20;46.60;;;23.78;31.67;101869.41;5095081;28;20070;-44
2021/11/22 03:38:24;;;;;;;0.50;0.50;;;20.20;46.60;;;23.82;31.80;101870.13;5094156;28;20040;-42
2021/11/22 03:40:54;;;;;;;0.73;0.73;;;20.30;46.60;;;23.83;31.72;101871.84;5094419;28;20120;-42
2021/11/22 03:43:45;;;;;;;0.63;0.50;;;20.30;46.50;;;23.86;31.61;101879.69;5076563;28;20063;-46
2021/11/22 03:46:12;;;;;;;0.60;0.60;;;20.30;46.50;;;23.81;31.86;101863.91;5094055;28;20075;-47
2021/11/22 03:48:38;;;;;;;0.50;0.50;;;20.30;46.40;;;23.84;31.58;101871.78;5094761;28;20484;-43
2021/11/22 03:51:05;;;;;;;0.40;0.40;;;20.30;46.40;;;23.88;31.79;101879.63;5094856;28;20056;-45
2021/11/22 03:53:32;;;;;;;0.68;0.60;;;20.30;46.40;;;23.88;31.65;101880.47;5093835;28;20052;-44
2021/11/22 03:56:00;;;;;;;0.50;0.50;;;20.40;46.40;;;23.91;31.50;101887.44;5094614;28;20036;-45
2021/11/22 03:58:26;;;;;;;0.40;0.40;;;20.40;46.40;;;23.92;31.71;101881.13;5094610;28;20044;-45
2021/11/22 04:00:52;;;;;;;0.63;0.50;;;20.40;46.30;;;23.93;31.77;101888.22;5094648;28;20105;-44
2021/11/22 04:03:18;;;;;;;0.60;0.60;;;20.40;46.30;;;23.93;31.64;101880.19;5094357;28;20518;-42
2021/11/22 04:05:44;;;;;;;0.50;0.50;;;20.40;46.20;;;23.96;31.65;101891.56;5094435;28;20906;-43
2021/11/22 04:08:10;;;;;;;0.43;0.43;;;20.40;46.20;;;23.98;31.53;101896.81;5094746;28;20083;-44
2021/11/22 04:10:37;;;;;;;0.65;0.50;;;20.40;46.20;;;24.00;31.61;101906.44;5094489;28;20461;-43
2021/11/22 04:13:04;;;;;;;0.75;0.52;;;20.40;46.10;;;24.00;31.38;101910.94;5094326;28;20087;-42
2021/11/22 04:15:31;;;;;;;0.50;0.50;;;20.50;46.10;;;24.03;31.45;101905.41;5094665;28;20048;-43
2021/11/22 04:17:57;;;;;;;0.50;0.50;;;20.50;46.10;;;24.05;31.59;101911.53;5094327;28;20047;-43
2021/11/22 04:20:24;;;;;;;0.60;0.60;;;20.50;46.10;;;24.04;31.38;101904.47;5094245;28;20542;-46
2021/11/22 04:22:50;;;;;;;0.50;0.50;;;20.50;46.10;;;24.04;31.38;101910.69;5094385;28;20056;-45
2021/11/22 04:25:16;;;;;;;1.08;0.60;;;20.50;46.00;;;24.08;31.52;101908.69;5094279;28;20059;-45
2021/11/22 04:27:42;;;;;;;0.40;0.40;;;20.50;46.00;;;24.10;31.40;101913.94;5094404;28;20059;-45
2021/11/22 04:30:10;;;;;;;0.50;0.50;;;20.60;46.00;;;24.11;31.53;101919.19;5094209;28;20040;-44
2021/11/22 04:32:37;;;;;;;0.50;0.47;;;20.60;46.00;;;24.12;31.29;101917.38;5076180;28;20059;-44
2021/11/22 04:35:06;;;;;;;0.40;0.40;;;20.60;46.00;;;24.11;31.34;101921.00;5094105;28;20040;-47
2021/11/22 04:37:33;;;;;;;0.40;0.40;;;20.60;46.00;;;24.11;31.50;101918.34;5094137;28;20096;-48
2021/11/22 04:40:00;;;;;;;0.60;0.50;;;20.60;45.90;;;24.14;31.28;101921.69;5094061;28;20051;-46
2021/11/22 04:42:26;;;;;;;0.50;0.40;;;20.60;45.90;;;24.14;31.17;101929.72;5093933;28;20609;-47
2021/11/22 04:44:53;;;;;;;0.40;0.40;;;20.60;45.90;;;24.14;31.21;101928.81;5094324;28;20480;-47
2021/11/22 04:47:20;;;;;;;0.60;0.60;;;20.60;45.90;;;24.15;31.48;101943.91;5094320;28;20571;-47
2021/11/22 04:49:50;;;;;;;0.50;0.50;;;20.60;45.90;;;24.15;31.43;101947.44;5094035;28;20403;-46
2021/11/22 04:52:17;;;;;;;0.30;0.30;;;20.60;45.90;;;24.18;31.29;101949.94;5094328;28;20048;-46
2021/11/22 04:54:44;;;;;;;0.43;0.43;;;20.60;45.90;;;24.19;31.35;101949.00;5093972;28;20499;-47
2021/11/22 04:57:10;;;;;;;0.50;0.50;;;20.60;45.90;;;24.16;31.19;101953.66;5093782;28;20181;-48
2021/11/22 04:59:37;;;;;;;0.52;0.40;;;20.60;45.90;;;24.17;31.30;101960.72;5093740;28;20051;-48
2021/11/22 05:02:05;;;;;;;0.50;0.50;;;20.60;45.90;;;24.20;31.15;101968.56;5093674;28;20051;-49
2021/11/22 05:04:31;;;;;;;0.60;0.60;;;20.60;45.90;;;24.20;31.26;101969.41;5093617;28;20487;-47
2021/11/22 05:06:57;;;;;;;0.52;0.50;;;20.60;45.90;;;24.20;31.01;101964.06;5076077;28;20052;-50
2021/11/22 05:09:23;;;;;;;0.40;0.40;;;20.60;45.90;;;24.20;31.05;101971.22;5093431;28;20163;-49
2021/11/22 05:11:50;;;;;;;0.43;0.43;;;20.60;45.90;;;24.19;31.35;101972.16;5093732;28;20044;-44
2021/11/22 05:14:16;;;;;;;0.50;0.50;;;20.60;45.90;;;24.19;31.09;101973.06;5093609;28;20063;-50
2021/11/22 05:16:44;;;;;;;0.50;0.50;;;20.60;45.90;;;24.20;31.09;101976.56;5093356;28;20040;-50
2021/11/22 05:19:12;;;;;;;0.70;0.50;;;20.60;45.90;;;24.19;31.14;101985.53;5093295;28;20048;-44
2021/11/22 05:21:39;;;;;;;0.50;0.50;;;20.60;45.90;;;24.18;31.27;101979.34;5093316;28;20048;-43
2021/11/22 05:24:05;;;;;;;0.50;0.50;;;20.60;45.90;;;24.20;31.36;101981.91;5093677;28;20105;-43
2021/11/22 05:26:32;;;;;;;0.50;0.50;;;20.60;45.90;;;24.21;31.38;101981.84;5075202;28;20051;-43
2021/11/22 05:28:59;;;;;;;0.73;0.73;;;20.60;45.90;;;24.16;31.21;101973.22;5093229;28;20055;-43
2021/11/22 05:31:26;;;;;;;1.30;0.50;;;20.60;45.80;;;24.20;31.28;101989.94;5093835;28;20484;-44
2021/11/22 05:33:52;;;;;;;0.40;0.40;;;20.60;45.90;;;24.21;31.12;102000.53;5093349;28;20083;-45
2021/11/22 05:36:19;;;;;;;0.47;0.47;;;20.60;46.40;;;24.21;31.33;102002.34;5093537;28;20063;-44
2021/11/22 05:38:46;;;;;;;1.08;0.50;;;20.60;45.80;;;24.20;31.17;102001.47;5092950;28;20044;-42
2021/11/22 05:41:12;;;;;;;0.40;0.40;;;20.60;45.80;;;24.20;31.28;102001.47;5093064;28;20048;-42
2021/11/22 05:43:40;;;;;;;0.50;0.50;;;20.60;45.80;;;24.18;31.26;102002.53;5093175;28;20131;-44
2021/11/22 05:46:09;;;;;;;0.50;0.50;;;20.60;45.80;;;24.21;31.16;102016.56;5093040;28;20044;-45
2021/11/22 05:48:37;;;;;;;0.55;0.50;;;20.60;45.80;;;24.17;31.07;102012.38;5093118;28;20044;-46
2021/11/22 05:51:08;;;;;;;0.60;0.60;;;20.60;45.80;;;24.19;31.23;102009.56;5093290;28;20061;-43
2021/11/22 05:53:36;;;;;;;0.60;0.60;;;20.60;45.80;;;24.20;31.08;102017.50;5092958;28;20040;-43
2021/11/22 05:56:07;;;;;;;0.50;0.40;;;20.60;45.80;;;24.22;31.06;102022.78;5093000;28;20082;-44
2021/11/22 05:58:35;;;;;;;0.60;0.60;;;20.60;45.80;;;24.23;30.89;102030.69;5092879;28;20044;-43
2021/11/22 06:01:05;;;;;;;0.40;0.40;;;20.60;45.80;;;24.21;31.05;102026.41;5092726;28;20458;-45
2021/11/22 06:03:31;;;;;;;0.50;0.50;;;20.60;45.70;;;24.23;31.04;102036.03;5093252;28;20058;-43
2021/11/22 06:05:57;;;;;;;0.50;0.50;;;20.60;45.70;;;24.22;31.24;102037.03;5092794;28;20492;-44
2021/11/22 06:08:25;;;;;;;0.55;0.52;;;20.60;45.80;;;24.20;31.13;102040.72;5092682;28;20067;-44
2021/11/22 06:10:52;;;;;;;0.50;0.50;;;20.60;45.80;;;24.18;31.12;102039.94;5074138;28;20048;-46
2021/11/22 06:13:20;;;;;;;0.40;0.40;;;20.60;45.80;;;24.22;31.20;102049.50;5092768;28;20393;-45
2021/11/22 06:15:48;;;;;;;0.40;0.40;;;20.60;45.80;;;24.22;31.06;102047.72;5091865;28;20459;-48
2021/11/22 06:18:17;;;;;;;0.47;0.47;;;20.60;45.80;;;24.22;31.13;102049.50;5092565;28;20056;-44
2021/11/22 06:20:44;;;;;;;0.50;0.50;;;20.60;46.30;;;24.19;31.03;102044.31;5092452;28;20050;-44
2021/11/22 06:23:10;;;;;;;0.50;0.50;;;20.60;45.80;;;24.19;31.17;102052.34;5074523;28;20051;-45
2021/11/22 06:25:36;;;;;;;0.40;0.40;;;20.60;45.80;;;24.20;31.01;102059.41;5092676;28;20473;-44
2021/11/22 06:28:03;;;;;;;0.40;0.40;;;20.60;45.80;;;24.22;31.08;102073.53;5092424;28;20052;-47
2021/11/22 06:30:29;;;;;;;0.40;0.40;;;20.60;45.80;;;24.18;31.04;102064.00;5092309;28;20067;-46
2021/11/22 06:32:56;;;;;;;0.50;0.50;;;20.60;45.80;;;24.23;31.13;102072.63;5092501;28;20059;-49
2021/11/22 06:35:22;;;;;;;0.60;0.50;;;20.60;45.80;;;24.21;30.96;102069.16;5092437;28;20380;-49
2021/11/22 06:37:51;;;;;;;0.82;0.57;;;20.60;45.80;;;24.23;31.12;102084.16;5092431;28;20394;-44
2021/11/22 06:40:18;;;;;;;0.40;0.40;;;20.60;45.80;;;24.24;31.12;102087.72;5092113;28;20090;-43
2021/11/22 06:42:44;;;;;;;0.85;0.40;;;20.60;45.80;;;24.24;31.06;102090.38;5092565;28;20052;-48
2021/11/22 06:45:11;;;;;;;0.32;0.32;;;20.60;45.70;;;24.23;31.00;102094.00;5092270;28;20044;-46
2021/11/22 06:47:37;;;;;;;0.50;0.50;;;20.60;45.70;;;24.22;31.08;102105.63;5092232;28;20048;-49
2021/11/22 06:50:05;;;;;;;0.65;0.60;;;20.70;45.80;;;24.23;31.02;102102.00;5092313;28;20044;-46
2021/11/22 06:52:31;;;;;;;0.40;0.40;;;20.70;45.80;;;24.23;31.10;102118.03;5092258;28;20105;-44
2021/11/22 06:54:57;;;;;;;0.43;0.43;;;20.70;45.80;;;24.22;31.14;102117.19;5073903;28;20415;-44
2021/11/22 06:57:24;;;;;;;0.30;0.30;;;20.60;45.70;;;24.23;31.23;102115.38;5092078;28;20051;-44
2021/11/22 06:59:51;;;;;;;0.65;0.55;;;20.60;45.60;;;24.25;30.94;102123.31;5091882;28;20083;-44
2021/11/22 07:02:17;;;;;;;0.50;0.50;;;20.60;45.70;;;24.21;31.11;102118.13;5091880;28;20043;-44
2021/11/22 07:04:45;;;;;;;0.50;0.50;;;20.60;45.60;;;24.22;30.96;102121.66;5091970;28;20052;-46
2021/11/22 07:07:13;;;;;;;0.60;0.60;;;20.70;45.60;;;24.25;31.09;102129.50;5092038;28;20051;-46
2021/11/22 07:09:39;;;;;;;0.85;0.52;;;20.70;45.60;;;24.24;31.02;102122.47;5091739;28;20044;-43
2021/11/22 07:12:07;;;;;;;0.50;0.50;;;20.70;45.60;;;24.25;30.99;102134.84;5092232;28;20068;-42
2021/11/22 07:14:36;;;;;;;1.05;0.70;;;20.70;45.60;;;24.22;31.07;102133.22;5091901;28;20044;-45
2021/11/22 07:17:02;;;;;;;0.60;0.60;;;20.70;45.60;;;24.26;30.94;102135.69;5091818;28;20043;-43
2021/11/22 07:19:30;;;;;;;0.60;0.60;;;20.70;45.60;;;24.27;31.16;102140.97;5091600;28;20055;-44
2021/11/22 07:21:56;;;;;;;0.55;0.50;;;20.70;45.60;;;24.29;31.02;102148.91;5091696;28;20124;-48
2021/11/22 07:24:22;;;;;;;0.50;0.50;;;20.70;45.60;;;24.29;31.03;102147.13;5091805;28;20044;-43
2021/11/22 07:26:48;;;;;;;0.88;0.43;;;20.70;45.60;;;24.26;30.93;102151.75;5073953;28;20047;-46
2021/11/22 07:29:16;;;;;;;0.75;0.50;;;20.70;45.60;;;24.29;30.98;102152.47;5093800;28;20389;-48
2021/11/22 07:31:42;;;;;;;0.57;0.47;;;20.80;45.50;;;24.30;31.02;102155.97;5095311;28;20044;-43
2021/11/22 07:34:09;;;;;;;0.50;0.50;;;20.80;45.50;;;24.34;30.88;102169.09;5095072;28;20078;-44
2021/11/22 07:36:35;;;;;;;0.40;0.40;;;20.80;45.40;;;24.36;30.90;102169.00;5094806;28;20505;-43
2021/11/22 07:39:01;;;;;;;0.43;0.43;;;20.80;45.40;;;24.39;31.02;102180.41;5095009;28;20040;-43
2021/11/22 07:41:26;;;;;;;0.40;0.40;;;20.90;45.30;;;24.38;31.03;102177.81;5094740;28;20051;-47
2021/11/22 07:43:52;;;;;;;0.50;0.50;;;20.90;45.40;;;24.39;30.87;102174.16;5074768;28;20047;-46
2021/11/22 07:46:18;;;;;;;0.40;0.40;;;20.90;45.30;;;24.44;30.97;102179.25;5095038;28;20143;-43
2021/11/22 07:48:44;;;;;;;0.70;0.60;;;20.90;45.30;;;24.43;30.79;102183.75;5094794;28;20086;-42
2021/11/22 07:51:10;;;;;;;0.60;0.50;;;20.90;45.40;;;24.42;31.01;102182.03;5094715;28;20131;-42
2021/11/22 07:53:38;;;;;;;0.43;0.43;;;20.90;45.40;;;24.44;30.91;102184.59;5095031;28;20044;-44
2021/11/22 07:56:05;;;;;;;0.50;0.50;;;20.90;45.40;;;24.48;31.04;102189.72;5094656;28;20048;-43
2021/11/22 07:58:32;;;;;;;0.50;0.50;;;20.90;45.40;;;24.48;30.99;102189.72;5094562;28;20067;-45
2021/11/22 08:00:59;;;;;;;2.83;0.70;;;20.90;45.40;;;24.43;30.93;102186.44;5094397;28;20484;-43
2021/11/22 08:03:27;;;;;;;0.50;0.50;;;20.90;45.40;;;24.48;31.00;102194.19;5094540;28;20499;-45
2021/11/22 08:05:56;;;;;;;0.57;0.57;;;20.90;45.40;;;24.49;30.95;102202.13;5094813;28;20142;-45
2021/11/22 08:08:26;;;;;;;0.40;0.40;;;20.90;45.50;;;24.48;30.98;102191.53;5094194;28;20520;-44
2021/11/22 08:13:49;;;;;;;0.68;0.68;;;20.90;45.40;;;24.48;30.80;102192.38;5076006;28;20133;-45
2021/11/22 08:16:15;;;;;;;0.50;0.50;;;20.90;45.40;;;24.52;30.93;102204.63;5094080;28;20399;-43
2021/11/22 08:18:41;;;;;;;0.85;0.50;;;20.90;45.40;;;24.52;30.90;102203.75;5094288;28;20043;-43
2021/11/22 08:21:08;;;;;;;0.40;0.40;;;20.90;45.40;;;24.52;30.90;102206.44;5093813;28;20135;-44
2021/11/22 08:23:34;;;;;;;0.40;0.40;;;20.90;45.40;;;24.52;30.92;102217.97;5093949;28;20040;-46
2021/11/22 08:26:01;;;;;;;0.60;0.50;;;20.90;45.40;;;24.50;30.82;102216.34;5094529;28;20052;-44
2021/11/22 08:28:28;;;;;;;0.43;0.43;;;20.90;45.40;;;24.51;30.96;102218.94;5094020;28;20078;-44
2021/11/22 08:30:54;;;;;;;1.88;0.60;;;20.90;45.40;;;24.50;30.83;102221.72;5093738;28;20480;-46
2021/11/22 08:33:20;;;;;;;0.50;0.50;;;20.90;45.40;;;24.50;30.68;102219.03;5093756;28;20110;-45
2021/11/22 08:35:47;;;;;;;0.55;0.55;;;20.90;45.40;;;24.51;30.87;102221.63;5093726;28;20515;-46
2021/11/22 08:38:16;;;;;;;0.45;0.45;;;20.90;45.40;;;24.49;30.86;102222.66;5093442;28;20184;-47
2021/11/22 08:40:43;;;;;;;0.47;0.47;;;20.90;45.90;;;24.52;30.72;102227.81;5092889;28;22132;-44
2021/11/22 08:43:14;;;;;;;0.50;0.50;;;20.90;45.40;;;24.50;30.78;102238.59;5074328;28;20052;-46
2021/11/22 08:45:44;;;;;;;0.50;0.50;;;20.90;45.40;;;24.54;30.76;102239.28;5093739;28;20052;-45
2021/11/22 08:48:10;;;;;;;0.40;0.40;;;21.00;45.50;;;24.56;30.99;102246.31;5074763;28;20400;-45
2021/11/22 08:50:36;;;;;;;0.40;0.40;;;20.90;45.40;;;24.54;30.71;102242.84;5093172;28;20044;-47
2021/11/22 08:53:03;;;;;;;1.20;0.52;;;20.90;45.40;;;24.50;30.86;102245.78;5093396;28;20411;-46
2021/11/22 08:55:30;;;;;;;0.50;0.50;;;20.90;45.50;;;24.51;30.88;102260.88;5093524;28;20514;-45
2021/11/22 08:57:58;;;;;;;0.50;0.50;;;20.90;45.50;;;24.50;30.88;102249.31;5093223;28;20056;-46
2021/11/22 09:00:30;;;;;;;0.55;0.55;;;20.90;45.50;;;24.50;30.85;102262.66;5093236;28;20048;-43
2021/11/22 09:02:56;;;;;;;0.38;0.38;;;20.90;45.50;;;24.52;31.00;102260.75;5093240;28;20079;-48
2021/11/22 09:05:23;;;;;;;0.70;0.50;;;20.90;45.50;;;24.52;30.98;102257.25;5093216;28;20059;-43
2021/11/22 09:07:49;;;;;;;0.40;0.40;;;20.90;45.50;;;24.53;30.75;102258.97;5093055;28;20507;-45
2021/11/22 09:10:16;;;;;;;1.63;0.43;;;20.90;45.50;;;24.52;30.97;102270.59;5093167;28;20395;-44
2021/11/22 09:12:42;;;;;;;0.40;0.40;;;20.90;45.50;;;24.52;31.01;102274.13;5093030;28;20048;-44
2021/11/22 09:15:08;;;;;;;0.40;0.40;;;20.90;45.50;;;24.51;30.82;102276.91;5093488;28;20381;-46
2021/11/22 09:17:34;;;;;;;1.00;0.50;;;20.90;45.50;;;24.51;30.93;102275.09;5093110;28;20047;-48
2021/11/22 09:20:00;;;;;;;0.68;0.50;;;20.90;45.50;;;24.51;30.72;102276.91;5093178;28;20047;-44
2021/11/22 09:22:26;;;;;;;0.50;0.40;;;20.90;45.40;;;24.52;30.91;102282.16;5092911;28;20131;-46
2021/11/22 09:24:52;;;;;;;0.50;0.50;;;20.90;45.40;;;24.53;30.87;102278.53;5092992;28;20135;-47
2021/11/22 09:27:18;;;;;;;0.68;0.40;;;20.90;45.50;;;24.54;30.89;102292.78;5092948;28;20044;-45
2021/11/22 09:29:44;;;;;;;0.52;0.47;;;20.90;45.50;;;24.54;30.96;102293.66;5092859;28;20135;-44
2021/11/22 09:32:10;;;;;;;1.00;0.50;;;20.90;45.50;;;24.55;30.72;102298.06;5074250;28;20076;-46
2021/11/22 09:34:37;;;;;;;0.55;0.40;;;20.90;45.40;;;24.54;30.88;102293.66;5092888;28;20173;-44
2021/11/22 09:37:04;;;;;;;0.45;0.45;;;21.00;45.50;;;24.51;30.83;102295.63;5093458;28;20523;-43
2021/11/22 09:39:30;;;;;;;0.60;0.60;;;20.90;45.40;;;24.53;30.75;102302.63;5092779;28;20044;-47
2021/11/22 09:41:56;;;;;;;0.50;0.50;;;21.00;45.50;;;24.53;30.84;102301.75;5092695;28;20441;-45
2021/11/22 09:44:23;;;;;;;0.50;0.50;;;21.00;45.40;;;24.55;30.76;102305.25;5092867;28;20488;-47
2021/11/22 09:46:53;;;;;;;0.50;0.50;;;21.00;45.50;;;24.55;30.77;102308.78;5075016;28;20434;-48
2021/11/22 09:49:20;;;;;;;1.25;0.52;;;20.90;45.40;;;24.55;30.68;102311.44;5092610;28;20060;-45
2021/11/22 09:51:46;;;;;;;0.50;0.50;;;20.90;45.40;;;24.55;30.82;102300.75;5091563;28;20504;-47
2021/11/22 09:54:12;;;;;;;0.70;0.70;;;21.00;45.50;;;24.57;30.72;102306.91;5092625;28;20059;-46
2021/11/22 09:56:38;;;;;;;0.60;0.45;;;21.00;45.40;;;24.58;30.80;102303.25;5092502;28;20059;-45
2021/11/22 09:59:05;;;;;;;0.60;0.60;;;21.00;45.40;;;24.57;30.78;102301.53;5092889;28;20130;-43
2021/11/22 10:01:34;;;;;;;0.70;0.50;;;21.00;45.40;;;24.55;30.72;102298.06;5092675;28;20177;-47
2021/11/22 10:04:12;;;;;;;0.57;0.45;;;21.00;45.30;;;24.55;30.86;102291.88;5092809;28;20040;-46
2021/11/22 10:06:53;;;;;;;0.47;0.47;;;21.00;45.30;;;24.58;30.84;102302.41;5092666;28;20059;-45
2021/11/22 10:09:32;;;;;;;1.85;0.50;;;21.00;45.40;;;24.58;30.90;102308.59;5088441;28;20052;-45
2021/11/22 10:12:04;;;;;;;0.50;0.50;;;21.00;45.40;;;24.58;30.82;102303.25;5074696;28;20462;-52
2021/11/22 10:14:53;;;;;;;0.65;0.60;;;21.00;45.40;;;24.55;30.87;102298.06;5092385;28;20064;-49
2021/11/22 10:17:25;;;;;;;0.50;0.50;;;21.00;45.40;;;24.59;30.94;102309.47;5092680;28;20429;-44